Time;durP1;ratioP1;P1;durP2;ratioP2;P2;SDS_P1;SDS_P2;PMS_P1;PMS_P2;Temp;Humidity;BMP_temperature;BMP_pressure;BME280_temperature;BME280_humidity;BME280_pressure;Samples;Min_cycle;Max_cycle;Signal;HPM_P1;HPM_P2
2023/03/06 00:00:40;;;;;;;14.80;10.18;;;;;;;5.36;58.06;99960.94;4173847;28;20120;-63
2023/03/06 00:02:44;;;;;;;15.20;10.40;;;;;;;5.36;58.08;99967.00;4177196;28;20037;-63
2023/03/06 00:04:47;;;;;;;14.90;9.00;;;;;;;5.29;58.36;99966.78;4170237;28;20069;-63
2023/03/06 00:06:51;;;;;;;15.90;10.25;;;;;;;5.27;58.22;99966.75;4168070;28;20041;-63
2023/03/06 00:08:54;;;;;;;16.95;9.98;;;;;;;5.28;58.27;99973.63;4175977;28;20043;-63
2023/03/06 00:10:57;;;;;;;15.90;9.98;;;;;;;5.27;58.58;99960.72;4159596;28;20042;-63
2023/03/06 00:13:02;;;;;;;15.95;10.48;;;;;;;5.27;58.64;99960.72;4175961;28;20029;-64
2023/03/06 00:15:06;;;;;;;16.50;9.48;;;;;;;5.28;58.66;99962.47;4170386;28;20037;-63
2023/03/06 00:17:09;;;;;;;13.57;9.32;;;;;;;5.30;58.86;99958.22;4176585;28;20129;-63
2023/03/06 00:19:11;;;;;;;18.33;10.50;;;;;;;5.31;58.80;99949.66;4175753;28;20037;-63
2023/03/06 00:21:14;;;;;;;14.13;9.95;;;;;;;5.31;58.98;99952.22;4173821;28;20041;-63
2023/03/06 00:23:18;;;;;;;15.77;10.10;;;;;;;5.30;59.05;99947.91;4177279;28;20041;-64
2023/03/06 00:25:22;;;;;;;16.33;10.40;;;;;;;5.28;58.93;99936.69;4173862;28;20073;-64
2023/03/06 00:27:25;;;;;;;15.20;9.40;;;;;;;5.29;58.90;99939.31;4172952;28;20033;-63
2023/03/06 00:29:28;;;;;;;13.93;9.38;;;;;;;5.22;59.08;99937.41;4176124;28;20060;-63
2023/03/06 00:31:30;;;;;;;15.80;10.70;;;;;;;5.20;59.15;99941.66;4176432;28;20037;-63
2023/03/06 00:33:33;;;;;;;15.00;10.02;;;;;;;5.20;59.36;99926.19;4173957;28;20036;-63
2023/03/06 00:35:38;;;;;;;14.40;9.65;;;;;;;5.23;59.39;99927.13;4175656;28;20481;-62
2023/03/06 00:37:41;;;;;;;18.63;11.27;;;;;;;5.24;59.48;99926.31;4175990;28;20103;-62
2023/03/06 00:39:48;;;;;;;14.90;10.48;;;;;;;5.27;59.28;99929.78;4154673;28;20118;-62
2023/03/06 00:41:51;;;;;;;15.65;11.13;;;;;;;5.27;59.12;99928.09;4176380;28;20461;-62
2023/03/06 00:43:53;;;;;;;19.45;11.65;;;;;;;5.29;59.03;99933.28;4176678;28;20125;-63
2023/03/06 00:45:56;;;;;;;14.65;10.32;;;;;;;5.30;59.07;99930.75;4177936;28;20431;-62
2023/03/06 00:47:59;;;;;;;14.43;9.75;;;;;;;5.34;58.77;99927.41;4175021;28;20087;-62
2023/03/06 00:50:03;;;;;;;14.90;9.95;;;;;;;5.30;58.54;99922.13;4173282;28;20037;-62
2023/03/06 00:52:05;;;;;;;15.23;10.35;;;;;;;5.29;59.09;99928.13;4174625;28;20029;-62
2023/03/06 00:54:08;;;;;;;14.95;10.27;;;;;;;5.20;59.24;99921.03;4178187;28;20038;-62
2023/03/06 00:56:12;;;;;;;15.85;10.45;;;;;;;5.16;59.20;99927.78;4163996;28;20037;-62
2023/03/06 00:58:16;;;;;;;18.98;11.25;;;;;;;5.16;59.35;99919.19;4161820;28;20045;-62
2023/03/06 01:00:19;;;;;;;15.73;10.20;;;;;;;5.18;59.51;99918.41;4179389;28;20711;-62
2023/03/06 01:02:24;;;;;;;16.13;10.15;;;;;;;5.22;59.12;99920.22;4177851;28;20044;-62
2023/03/06 01:04:29;;;;;;;15.52;11.18;;;;;;;5.20;59.34;99916.72;4176837;28;20116;-62
2023/03/06 01:06:32;;;;;;;15.20;10.43;;;;;;;5.20;59.36;99914.16;4171554;28;20044;-62
2023/03/06 01:08:38;;;;;;;14.98;10.05;;;;;;;5.19;59.31;99907.25;4184565;28;20075;-62
2023/03/06 01:10:41;;;;;;;14.90;10.35;;;;;;;5.16;59.16;99907.16;4168851;28;20044;-62
2023/03/06 01:12:45;;;;;;;13.65;9.43;;;;;;;5.13;59.57;99901.06;4178473;28;20041;-62
2023/03/06 01:14:48;;;;;;;15.02;10.32;;;;;;;5.09;59.76;99900.09;4178012;28;20045;-63
2023/03/06 01:16:51;;;;;;;15.55;9.70;;;;;;;5.12;59.66;99897.59;4160206;28;20084;-63
2023/03/06 01:18:54;;;;;;;17.35;9.95;;;;;;;5.13;59.51;99898.50;4190089;28;20028;-63
2023/03/06 01:20:57;;;;;;;16.65;10.70;;;;;;;5.09;59.30;99887.22;4192804;28;20041;-63
2023/03/06 01:23:00;;;;;;;14.18;9.63;;;;;;;5.10;59.40;99891.56;4176783;28;20048;-62
2023/03/06 01:25:03;;;;;;;16.02;9.98;;;;;;;5.06;59.78;99884.56;4175363;28;20060;-63
2023/03/06 01:27:06;;;;;;;14.90;9.93;;;;;;;5.09;59.73;99878.63;4171956;28;20043;-63
2023/03/06 01:29:11;;;;;;;13.95;10.10;;;;;;;5.15;59.63;99869.34;4149063;28;20100;-62
2023/03/06 01:31:14;;;;;;;17.70;11.35;;;;;;;5.11;59.80;99876.97;4176448;28;20040;-62
2023/03/06 01:33:17;;;;;;;15.27;9.65;;;;;;;5.12;59.85;99874.41;4180149;28;20507;-62
2023/03/06 01:35:20;;;;;;;14.32;10.27;;;;;;;5.13;59.63;99854.69;4180358;28;20041;-63
2023/03/06 01:37:23;;;;;;;17.30;9.55;;;;;;;5.11;60.09;99858.91;4179716;28;20037;-63
2023/03/06 01:39:28;;;;;;;14.50;9.30;;;;;;;5.13;59.86;99863.28;4179480;28;20722;-62
2023/03/06 01:41:31;;;;;;;14.27;10.55;;;;;;;5.13;60.12;99852.13;4186197;28;20710;-62
2023/03/06 01:43:36;;;;;;;18.55;10.88;;;;;;;5.14;60.40;99852.16;4152725;28;20042;-62
2023/03/06 01:45:57;;;;;;;;;;;;;;;5.00;59.61;99849.22;4169822;28;20644;-62
2023/03/06 01:48:02;;;;;;;19.17;10.45;;;;;;;4.90;59.81;99848.06;4169574;28;20302;-63
2023/03/06 01:50:08;;;;;;;16.15;10.18;;;;;;;4.93;59.82;99841.28;4176162;28;20675;-63
2023/03/06 01:52:15;;;;;;;13.48;9.43;;;;;;;4.98;59.83;99844.84;4190181;28;20453;-62
2023/03/06 01:54:22;;;;;;;16.77;9.50;;;;;;;4.98;59.63;99844.84;4176697;28;20644;-62
2023/03/06 01:56:26;;;;;;;17.23;10.85;;;;;;;4.99;59.82;99842.31;4177557;28;20044;-63
2023/03/06 01:58:29;;;;;;;13.88;9.85;;;;;;;4.97;59.67;99838.81;4177039;28;20407;-62
2023/03/06 02:00:33;;;;;;;15.48;10.55;;;;;;;5.02;59.91;99837.25;4174395;28;20029;-62
2023/03/06 02:02:38;;;;;;;15.50;10.30;;;;;;;4.95;59.92;99835.34;4159114;28;20496;-63
2023/03/06 02:04:43;;;;;;;14.38;9.57;;;;;;;4.92;59.56;99834.38;4181370;28;20040;-63
2023/03/06 02:06:47;;;;;;;17.42;9.32;;;;;;;4.91;59.93;99833.50;4183359;28;20550;-62
2023/03/06 02:08:52;;;;;;;14.27;10.00;;;;;;;4.94;59.66;99828.44;4171676;28;20060;-62
2023/03/06 02:10:57;;;;;;;;;;;;;;;4.87;60.02;99832.53;4175673;28;20033;-62
2023/03/06 02:13:01;;;;;;;15.70;9.98;;;;;;;4.90;60.00;99832.63;4178195;28;19927;-62
2023/03/06 02:15:04;;;;;;;15.25;9.82;;;;;;;4.92;59.65;99829.22;4171821;28;20034;-62
2023/03/06 02:17:10;;;;;;;20.50;9.85;;;;;;;4.96;59.24;99825.91;4170756;28;20069;-62
2023/03/06 02:19:26;;;;;;;14.60;9.68;;;;;;;4.97;59.54;99825.94;4179951;28;20037;-63
2023/03/06 02:21:34;;;;;;;15.35;9.18;;;;;;;4.99;60.04;99825.97;4179485;28;20566;-63
2023/03/06 02:23:48;;;;;;;14.82;9.55;;;;;;;5.01;59.52;99824.34;4162645;28;20044;-62
2023/03/06 02:25:54;;;;;;;14.10;8.80;;;;;;;4.96;59.74;99824.19;4180343;28;20119;-63
2023/03/06 02:27:57;;;;;;;14.75;8.77;;;;;;;4.90;60.16;99819.75;4172878;28;20402;-63
2023/03/06 02:29:59;;;;;;;13.85;9.35;;;;;;;4.71;59.79;99820.09;4179743;28;20402;-63
2023/03/06 02:32:03;;;;;;;12.98;8.02;;;;;;;4.69;59.79;99816.63;4174536;28;20049;-63
2023/03/06 02:34:28;;;;;;;12.85;8.90;;;;;;;4.70;60.07;99810.63;4159402;28;20481;-63
2023/03/06 02:36:33;;;;;;;13.67;8.50;;;;;;;4.75;59.84;99803.03;4156305;28;20042;-62
2023/03/06 02:38:40;;;;;;;12.13;8.73;;;;;;;4.76;59.68;99809.91;4171326;28;20036;-63
2023/03/06 02:40:47;;;;;;;12.85;8.70;;;;;;;4.83;59.66;99804.09;4177803;28;20033;-62
2023/03/06 02:42:55;;;;;;;12.75;8.25;;;;;;;4.82;59.73;99797.19;4178164;28;20041;-62
2023/03/06 02:45:02;;;;;;;15.68;8.30;;;;;;;4.83;59.69;99809.25;4177142;28;20491;-62
2023/03/06 02:47:06;;;;;;;12.52;8.23;;;;;;;4.79;60.26;99802.25;4173467;28;20143;-62
2023/03/06 02:49:09;;;;;;;14.70;8.88;;;;;;;4.76;60.07;99803.06;4173262;28;20033;-63
2023/03/06 02:51:12;;;;;;;14.80;8.77;;;;;;;4.72;59.67;99794.38;4184052;28;20091;-63
2023/03/06 02:53:17;;;;;;;14.20;9.38;;;;;;;4.75;59.74;99788.44;4175631;28;20528;-62
2023/03/06 02:55:20;;;;;;;;;;;;;;;4.72;60.32;99786.66;4177246;28;20136;-62
2023/03/06 02:57:23;;;;;;;11.85;7.63;;;;;;;4.72;59.90;99786.66;4174361;28;19936;-63
2023/03/06 02:59:27;;;;;;;15.32;10.30;;;;;;;4.75;59.52;99780.72;4175219;28;20455;-63
2023/03/06 03:01:30;;;;;;;15.25;8.13;;;;;;;4.77;59.54;99786.78;4181848;28;20043;-62
2023/03/06 03:03:33;;;;;;;11.20;7.28;;;;;;;4.83;59.55;99780.91;4173440;28;20128;-63
2023/03/06 03:05:37;;;;;;;14.90;8.60;;;;;;;4.82;59.84;99786.88;4172560;28;20030;-63
2023/03/06 03:07:47;;;;;;;12.80;8.90;;;;;;;4.81;60.32;99780.88;4178139;28;20033;-62
2023/03/06 03:09:50;;;;;;;10.88;7.65;;;;;;;4.85;60.07;99781.84;4175916;28;20044;-62
2023/03/06 03:11:54;;;;;;;12.48;7.38;;;;;;;4.87;60.12;99781.03;4174477;28;20406;-63
2023/03/06 03:13:57;;;;;;;13.98;8.07;;;;;;;4.89;60.19;99774.25;4176125;28;20032;-62
2023/03/06 03:16:06;;;;;;;13.32;8.85;;;;;;;4.89;60.19;99774.25;4172587;28;20068;-62
2023/03/06 03:18:10;;;;;;;16.02;9.07;;;;;;;4.92;60.12;99772.56;4167355;28;20549;-63
2023/03/06 03:20:16;;;;;;;11.73;7.50;;;;;;;4.89;60.09;99774.25;4176178;28;20084;-62
2023/03/06 03:22:20;;;;;;;14.70;8.45;;;;;;;4.90;59.96;99769.94;4176960;28;20033;-63
2023/03/06 03:24:23;;;;;;;14.05;8.80;;;;;;;4.89;60.21;99766.50;4160126;28;20046;-62
2023/03/06 03:26:26;;;;;;;10.98;7.78;;;;;;;4.91;60.02;99769.13;4173203;28;20037;-62
2023/03/06 03:28:35;;;;;;;14.50;8.20;;;;;;;4.87;60.05;99777.59;4191645;28;20040;-62
2023/03/06 03:30:39;;;;;;;14.85;8.00;;;;;;;4.82;60.29;99772.34;4188390;28;20044;-62
2023/03/06 03:32:45;;;;;;;14.55;8.50;;;;;;;4.83;59.88;99763.78;4177078;28;20090;-62
2023/03/06 03:34:48;;;;;;;11.77;7.95;;;;;;;4.79;60.26;99761.97;4181046;28;20537;-63
2023/03/06 03:36:52;;;;;;;13.50;8.03;;;;;;;4.71;60.16;99764.31;4185664;28;20044;-63
2023/03/06 03:38:56;;;;;;;12.73;8.20;;;;;;;4.62;59.93;99758.06;4176245;28;20040;-62
2023/03/06 03:41:00;;;;;;;11.48;8.02;;;;;;;4.58;59.54;99763.94;4177003;28;20033;-62
2023/03/06 03:43:04;;;;;;;12.13;7.85;;;;;;;4.61;59.76;99756.31;4190207;28;20045;-62
2023/03/06 03:45:08;;;;;;;12.73;8.35;;;;;;;4.58;59.87;99758.81;4175639;28;20110;-62
2023/03/06 03:47:11;;;;;;;16.30;8.88;;;;;;;4.67;59.80;99762.50;4166836;28;20091;-62
2023/03/06 03:49:15;;;;;;;15.32;8.48;;;;;;;4.68;59.70;99747.91;4191730;28;20036;-62
2023/03/06 03:51:19;;;;;;;13.80;8.55;;;;;;;4.67;60.22;99757.34;4176460;28;20033;-63
2023/03/06 03:53:26;;;;;;;13.63;7.78;;;;;;;4.67;60.36;99759.03;4186556;28;20528;-62
2023/03/06 03:55:29;;;;;;;12.00;7.60;;;;;;;4.67;60.08;99751.31;4152924;28;20043;-62
2023/03/06 03:57:32;;;;;;;12.25;7.82;;;;;;;4.68;60.11;99753.06;4174268;28;20135;-62
2023/03/06 03:59:36;;;;;;;12.57;8.68;;;;;;;4.67;60.17;99761.63;4167298;28;20033;-62
2023/03/06 04:01:46;;;;;;;14.07;8.18;;;;;;;4.65;60.15;99753.00;4157654;28;20072;-62
2023/03/06 04:03:49;;;;;;;12.45;7.53;;;;;;;4.65;60.23;99750.41;4153346;28;20037;-62
2023/03/06 04:05:54;;;;;;;13.68;8.27;;;;;;;4.68;59.88;99743.63;4181130;28;20612;-62
2023/03/06 04:07:57;;;;;;;12.30;8.13;;;;;;;4.70;60.34;99746.25;4162554;28;20474;-62
2023/03/06 04:10:00;;;;;;;11.63;7.80;;;;;;;4.69;59.98;99740.22;4175243;28;20483;-62
2023/03/06 04:12:05;;;;;;;14.70;9.30;;;;;;;4.68;59.83;99740.19;4175605;28;20449;-62
2023/03/06 04:14:10;;;;;;;14.07;8.15;;;;;;;4.63;59.69;99728.88;4176712;28;20037;-62
2023/03/06 04:16:13;;;;;;;13.77;7.75;;;;;;;4.64;59.83;99733.22;4169385;28;20044;-63
2023/03/06 04:18:16;;;;;;;11.80;7.75;;;;;;;4.67;59.97;99736.75;4176578;28;20403;-62
2023/03/06 04:20:20;;;;;;;13.50;7.90;;;;;;;4.72;60.10;99734.31;4158803;28;20092;-62
2023/03/06 04:22:25;;;;;;;11.68;8.05;;;;;;;4.77;60.43;99731.84;4177110;28;20041;-62
2023/03/06 04:24:28;;;;;;;13.43;8.27;;;;;;;4.74;60.45;99726.63;4189564;28;20429;-62
2023/03/06 04:26:30;;;;;;;12.32;7.63;;;;;;;4.70;60.99;99730.78;4183237;28;20082;-62
2023/03/06 04:28:34;;;;;;;12.90;8.32;;;;;;;4.68;60.97;99733.34;4190176;28;20040;-62
2023/03/06 04:30:36;;;;;;;13.68;8.60;;;;;;;4.69;60.86;99721.34;4195187;28;20037;-62
2023/03/06 04:32:40;;;;;;;12.55;8.43;;;;;;;4.70;61.23;99720.50;4179095;28;20075;-62
2023/03/06 04:34:43;;;;;;;13.80;8.20;;;;;;;4.69;61.05;99719.63;4179639;28;20048;-62
2023/03/06 04:36:46;;;;;;;13.52;9.10;;;;;;;4.68;60.89;99725.59;4180207;28;20036;-62
2023/03/06 04:38:52;;;;;;;12.65;8.23;;;;;;;4.66;60.80;99724.72;4188606;28;20055;-62
2023/03/06 04:40:55;;;;;;;14.90;8.95;;;;;;;4.64;61.00;99721.22;4192234;28;20037;-62
2023/03/06 04:43:00;;;;;;;14.63;8.40;;;;;;;4.69;60.57;99718.78;4188755;28;20041;-62
2023/03/06 04:45:03;;;;;;;11.43;8.30;;;;;;;4.71;60.56;99717.97;4176640;28;20098;-63
2023/03/06 04:47:06;;;;;;;14.20;8.43;;;;;;;4.73;60.64;99718.00;4177958;28;20132;-62
2023/03/06 04:49:09;;;;;;;13.93;8.45;;;;;;;4.68;61.35;99714.44;4170911;28;20052;-62
2023/03/06 04:51:13;;;;;;;12.20;8.52;;;;;;;4.65;61.19;99711.81;4172615;28;20243;-62
2023/03/06 04:53:18;;;;;;;12.98;7.63;;;;;;;4.67;60.84;99710.13;4172836;28;20110;-62
2023/03/06 04:55:22;;;;;;;12.98;8.43;;;;;;;4.67;61.10;99711.00;4175740;28;20072;-63
2023/03/06 04:57:26;;;;;;;13.95;8.43;;;;;;;4.62;61.17;99709.16;4176575;28;20037;-63
2023/03/06 04:59:29;;;;;;;13.90;8.52;;;;;;;4.61;61.29;99702.25;4174788;28;20052;-63
2023/03/06 05:01:31;;;;;;;11.48;7.82;;;;;;;4.67;61.39;99711.00;4178833;28;20053;-64
2023/03/06 05:03:34;;;;;;;12.25;7.93;;;;;;;4.72;61.39;99700.81;4179593;28;20079;-62
2023/03/06 05:05:37;;;;;;;16.45;8.80;;;;;;;4.62;61.42;99704.00;4180405;28;20040;-62
2023/03/06 05:07:41;;;;;;;14.13;8.43;;;;;;;4.62;61.34;99704.00;4176265;28;20037;-62
2023/03/06 05:09:44;;;;;;;14.82;9.00;;;;;;;4.64;61.09;99704.91;4181769;28;20112;-62
2023/03/06 05:11:48;;;;;;;12.70;8.50;;;;;;;4.65;61.07;99704.06;4179628;28;20094;-62
2023/03/06 05:13:51;;;;;;;14.10;8.55;;;;;;;4.67;61.01;99704.97;4176004;28;20045;-62
2023/03/06 05:15:54;;;;;;;16.13;8.65;;;;;;;4.67;60.73;99708.44;4180191;28;20429;-62
2023/03/06 05:17:57;;;;;;;12.15;8.82;;;;;;;4.68;60.82;99701.56;4172422;28;20080;-62
2023/03/06 05:20:00;;;;;;;14.25;9.23;;;;;;;4.71;60.76;99701.66;4177223;28;20410;-62
2023/03/06 05:22:03;;;;;;;18.55;9.65;;;;;;;4.72;60.88;99700.81;4170303;28;20037;-62
2023/03/06 05:24:18;;;;;;;12.82;8.38;;;;;;;4.74;60.97;99706.03;4184362;22;20073;-59
2023/03/06 05:26:21;;;;;;;13.90;9.30;;;;;;;4.72;61.08;99695.69;4164659;28;20049;-60
2023/03/06 05:28:25;;;;;;;14.88;8.52;;;;;;;4.69;61.07;99699.03;4163035;28;20438;-60
2023/03/06 05:30:28;;;;;;;13.45;8.15;;;;;;;4.67;61.11;99699.81;4164006;28;20099;-60
2023/03/06 05:32:31;;;;;;;12.80;9.63;;;;;;;4.69;61.09;99693.03;4164792;28;20037;-60
2023/03/06 05:34:37;;;;;;;11.85;7.28;;;;;;;4.66;61.31;99688.66;4167945;28;20120;-59
2023/03/06 05:36:40;;;;;;;14.75;9.40;;;;;;;4.70;61.26;99689.59;4169410;28;20042;-59
2023/03/06 05:38:43;;;;;;;13.57;8.30;;;;;;;4.71;61.33;99688.78;4172702;28;20055;-59
2023/03/06 05:40:46;;;;;;;14.52;9.75;;;;;;;4.67;61.68;99692.09;4169781;28;20091;-60
2023/03/06 05:42:49;;;;;;;13.02;8.60;;;;;;;4.66;61.55;99691.25;4183929;28;20033;-60
2023/03/06 05:44:53;;;;;;;12.35;7.97;;;;;;;4.69;61.31;99688.75;4174817;28;20040;-60
2023/03/06 05:46:55;;;;;;;17.02;9.32;;;;;;;4.63;61.36;99696.31;4169167;28;20038;-60
2023/03/06 05:48:58;;;;;;;14.45;9.40;;;;;;;4.60;61.25;99692.78;4169813;28;20037;-59
2023/03/06 05:51:02;;;;;;;14.98;8.10;;;;;;;4.60;61.27;99701.38;4169938;28;20441;-60
2023/03/06 05:53:05;;;;;;;15.52;9.65;;;;;;;4.62;61.42;99696.28;4161722;28;20056;-60
2023/03/06 05:55:11;;;;;;;14.93;8.45;;;;;;;4.65;61.26;99701.50;4168887;28;20033;-60
2023/03/06 05:57:13;;;;;;;13.35;8.25;;;;;;;4.63;61.33;99704.03;4169199;28;20037;-60
2023/03/06 05:59:16;;;;;;;14.98;9.52;;;;;;;4.67;61.18;99700.72;4172586;28;20083;-60
2023/03/06 06:01:21;;;;;;;17.35;9.80;;;;;;;4.66;60.76;99698.09;4164156;28;20034;-60
2023/03/06 06:03:24;;;;;;;14.73;9.30;;;;;;;4.66;60.44;99693.81;4150785;28;20057;-60
2023/03/06 06:05:27;;;;;;;13.88;8.82;;;;;;;4.64;60.57;99689.44;4164951;28;20129;-60
2023/03/06 06:07:31;;;;;;;15.43;9.10;;;;;;;4.67;60.69;99692.09;4165366;28;20127;-59
2023/03/06 06:09:34;;;;;;;13.95;8.68;;;;;;;4.64;60.85;99685.16;4154947;28;20049;-60
2023/03/06 06:11:36;;;;;;;19.38;10.02;;;;;;;4.59;61.19;99686.78;4164668;28;20041;-60
2023/03/06 06:13:40;;;;;;;12.95;7.88;;;;;;;4.59;61.29;99691.06;4168976;28;20132;-59
2023/03/06 06:15:43;;;;;;;13.32;8.73;;;;;;;4.62;61.02;99693.72;4166731;28;20041;-60
2023/03/06 06:17:47;;;;;;;12.27;8.32;;;;;;;4.60;60.99;99697.91;4163528;28;20037;-60
2023/03/06 06:19:50;;;;;;;12.93;9.10;;;;;;;4.57;61.29;99688.44;4164640;28;20033;-60
2023/03/06 06:21:54;;;;;;;13.52;8.55;;;;;;;4.55;61.61;99685.81;4176175;28;20040;-60
2023/03/06 06:23:56;;;;;;;14.02;9.25;;;;;;;4.57;61.53;99692.69;4163633;28;20033;-60
2023/03/06 06:26:00;;;;;;;13.45;8.73;;;;;;;4.60;61.77;99692.78;4162507;28;20384;-60
2023/03/06 06:28:03;;;;;;;14.60;9.57;;;;;;;4.59;61.70;99696.22;4164330;28;20037;-60
2023/03/06 06:30:07;;;;;;;13.70;9.07;;;;;;;4.60;61.98;99700.50;4166058;28;20553;-60
2023/03/06 06:32:10;;;;;;;14.70;9.88;;;;;;;4.56;61.79;99702.13;4163563;28;20045;-59
2023/03/06 06:34:14;;;;;;;13.90;9.77;;;;;;;4.60;61.83;99695.34;4169255;28;20068;-60
2023/03/06 06:36:20;;;;;;;13.55;9.75;;;;;;;4.59;61.61;99694.50;4168781;28;20041;-60
2023/03/06 06:38:22;;;;;;;14.80;9.70;;;;;;;4.62;61.69;99696.28;4171207;28;20387;-60
2023/03/06 06:40:26;;;;;;;17.70;9.95;;;;;;;4.66;61.79;99690.38;4168527;28;20040;-60
2023/03/06 06:42:29;;;;;;;14.27;9.65;;;;;;;4.67;62.12;99690.41;4166558;28;20043;-60
2023/03/06 06:44:40;;;;;;;12.80;8.98;;;;;;;4.67;62.03;99698.16;4164876;28;20037;-60
2023/03/06 06:46:44;;;;;;;14.38;10.13;;;;;;;4.66;62.08;99698.97;4168470;28;20060;-60
2023/03/06 06:49:07;;;;;;;15.15;9.93;;;;;;;4.62;62.19;99691.13;4168839;28;20459;-60
2023/03/06 06:51:11;;;;;;;15.63;9.98;;;;;;;4.66;62.10;99698.09;4172810;28;20033;-60
2023/03/06 06:53:14;;;;;;;14.85;9.30;;;;;;;4.63;62.62;99700.56;4170956;28;20074;-60
2023/03/06 06:55:17;;;;;;;15.65;8.93;;;;;;;4.61;62.36;99699.69;4166548;28;20044;-59
2023/03/06 06:57:20;;;;;;;14.90;9.65;;;;;;;4.57;62.65;99709.03;4161966;28;20095;-59
2023/03/06 06:59:23;;;;;;;16.98;11.07;;;;;;;4.58;62.54;99709.91;4163588;28;20044;-59
2023/03/06 07:01:26;;;;;;;13.93;9.38;;;;;;;4.58;62.88;99707.31;4170102;28;20056;-59
2023/03/06 07:03:29;;;;;;;18.67;10.63;;;;;;;4.68;62.64;99720.47;4168606;28;20037;-59
2023/03/06 07:05:32;;;;;;;18.00;10.63;;;;;;;4.75;61.75;99718.06;4178432;28;20150;-59
2023/03/06 07:07:37;;;;;;;20.30;11.00;;;;;;;4.66;61.75;99718.69;4167386;28;20037;-59
2023/03/06 07:09:40;;;;;;;16.50;10.10;;;;;;;4.63;61.84;99721.16;4162672;28;20034;-59
2023/03/06 07:11:43;;;;;;;15.93;10.30;;;;;;;4.59;62.03;99717.66;4165314;28;20043;-59
2023/03/06 07:13:47;;;;;;;16.95;11.10;;;;;;;4.62;62.25;99722.88;4166786;28;20041;-59
2023/03/06 07:15:50;;;;;;;16.90;10.48;;;;;;;4.55;62.30;99724.41;4173076;28;20037;-59
2023/03/06 07:17:53;;;;;;;16.40;9.38;;;;;;;4.52;62.46;99719.19;4189533;28;20032;-59
2023/03/06 07:19:55;;;;;;;15.70;10.60;;;;;;;4.54;62.72;99717.53;4152115;28;20041;-59
2023/03/06 07:21:59;;;;;;;15.27;10.88;;;;;;;4.53;63.25;99722.66;4166495;28;20048;-59
2023/03/06 07:24:03;;;;;;;17.08;9.85;;;;;;;4.57;62.89;99723.59;4158359;28;20462;-59
2023/03/06 07:26:06;;;;;;;14.05;10.02;;;;;;;4.48;63.16;99724.22;4162310;28;21575;-59
2023/03/06 07:28:09;;;;;;;19.35;11.30;;;;;;;4.46;63.64;99721.59;4188473;28;20033;-59
2023/03/06 07:30:13;;;;;;;14.18;9.40;;;;;;;4.49;63.63;99721.69;4167332;28;20037;-59
2023/03/06 07:32:16;;;;;;;17.90;10.43;;;;;;;4.51;63.97;99716.56;4169361;28;20087;-59
2023/03/06 07:34:18;;;;;;;18.17;10.98;;;;;;;4.59;63.60;99714.22;4169047;28;20045;-59
2023/03/06 07:36:22;;;;;;;17.55;10.30;;;;;;;4.62;63.75;99722.03;4180789;28;20079;-59
2023/03/06 07:38:25;;;;;;;20.15;10.60;;;;;;;4.69;63.34;99713.63;4162760;28;20515;-59
2023/03/06 07:40:29;;;;;;;17.08;10.05;;;;;;;4.78;63.17;99711.28;4179726;28;20075;-60
2023/03/06 07:42:32;;;;;;;15.57;9.45;;;;;;;4.84;62.82;99703.69;4166361;28;20041;-59
2023/03/06 07:44:37;;;;;;;;;;;;;;;4.86;62.98;99696.91;4170365;28;20045;-59
2023/03/06 07:46:40;;;;;;;15.25;9.43;;;;;;;4.94;62.55;99699.66;4164425;28;20031;-59
2023/03/06 07:48:44;;;;;;;15.80;10.30;;;;;;;5.05;62.26;99702.47;4164936;28;20049;-59
2023/03/06 07:50:55;;;;;;;15.77;9.90;;;;;;;5.15;61.97;99698.44;4159746;28;20542;-59
2023/03/06 07:52:57;;;;;;;15.82;10.23;;;;;;;5.22;61.63;99706.34;4159882;28;20033;-59
2023/03/06 07:55:00;;;;;;;19.02;10.88;;;;;;;5.11;61.61;99705.22;4160314;28;20034;-59
2023/03/06 07:57:04;;;;;;;18.02;10.68;;;;;;;5.07;61.59;99709.41;4154912;28;20041;-59
2023/03/06 07:59:07;;;;;;;18.95;10.90;;;;;;;5.03;62.07;99706.75;4167854;28;20506;-59
2023/03/06 08:01:12;;;;;;;15.35;10.27;;;;;;;5.09;62.12;99709.47;4166790;28;20409;-60
2023/03/06 08:03:16;;;;;;;18.73;11.02;;;;;;;5.13;62.12;99711.28;4167573;28;20095;-59
2023/03/06 08:05:19;;;;;;;13.65;9.32;;;;;;;5.22;61.96;99701.19;4163737;28;20053;-59
2023/03/06 08:07:22;;;;;;;15.85;10.23;;;;;;;5.32;61.77;99715.16;4170617;28;20458;-59
2023/03/06 08:09:25;;;;;;;16.83;11.18;;;;;;;5.37;61.65;99710.09;4164673;28;20042;-59
2023/03/06 08:11:30;;;;;;;16.52;10.85;;;;;;;5.51;61.41;99711.28;4171365;28;20403;-59
2023/03/06 08:13:35;;;;;;;17.13;9.85;;;;;;;5.48;61.57;99718.09;4165317;28;20065;-59
2023/03/06 08:15:37;;;;;;;;;;;;;;;5.34;61.27;99728.94;4184530;28;20033;-59
2023/03/06 08:17:40;;;;;;;16.60;10.43;;;;;;;5.30;61.64;99723.69;4165042;28;20298;-60
2023/03/06 08:19:43;;;;;;;14.68;9.80;;;;;;;5.30;61.40;99723.69;4170615;28;20045;-59
2023/03/06 08:21:46;;;;;;;17.95;10.35;;;;;;;5.37;61.70;99731.63;4172322;28;20032;-59
2023/03/06 08:23:49;;;;;;;16.33;10.05;;;;;;;5.37;61.89;99733.31;4171467;28;20041;-59
2023/03/06 08:25:55;;;;;;;14.82;10.02;;;;;;;5.44;61.53;99734.34;4169196;28;20053;-59
2023/03/06 08:27:58;;;;;;;14.95;10.05;;;;;;;5.40;61.84;99733.38;4164688;28;20042;-59
2023/03/06 08:30:04;;;;;;;16.63;10.55;;;;;;;5.40;61.67;99728.22;4163858;28;20056;-59
2023/03/06 08:32:11;;;;;;;17.85;10.93;;;;;;;5.50;61.48;99727.59;4169055;28;20537;-59
2023/03/06 08:34:16;;;;;;;14.77;9.60;;;;;;;5.44;61.70;99737.78;4163035;28;20044;-60
2023/03/06 08:36:19;;;;;;;20.25;10.38;;;;;;;5.41;61.84;99732.53;4168412;28;20131;-59
2023/03/06 08:38:22;;;;;;;14.57;10.05;;;;;;;5.42;61.70;99740.31;4165996;28;20040;-59
2023/03/06 08:40:25;;;;;;;18.67;12.18;;;;;;;5.44;61.60;99736.91;4168769;28;20057;-60
2023/03/06 08:42:28;;;;;;;19.55;12.45;;;;;;;5.44;60.89;99737.78;4176946;28;20041;-59
2023/03/06 08:44:31;;;;;;;16.63;11.25;;;;;;;5.35;59.99;99740.13;4187858;28;20041;-59
2023/03/06 08:46:36;;;;;;;17.98;10.95;;;;;;;5.35;60.07;99735.84;4188602;28;20029;-59
2023/03/06 08:48:39;;;;;;;16.00;10.73;;;;;;;5.41;60.24;99742.84;4167995;28;20376;-59
2023/03/06 08:50:42;;;;;;;19.05;12.05;;;;;;;5.45;60.46;99741.22;4180194;28;20511;-59
2023/03/06 08:52:45;;;;;;;17.75;11.18;;;;;;;5.48;59.81;99739.59;4171230;28;20483;-59
2023/03/06 08:54:48;;;;;;;14.10;9.90;;;;;;;5.47;59.52;99743.00;4187460;28;20043;-59
2023/03/06 08:56:51;;;;;;;16.15;10.40;;;;;;;5.30;59.17;99749.44;4186109;28;20433;-59
2023/03/06 08:58:54;;;;;;;18.88;10.38;;;;;;;5.21;59.51;99743.25;4170136;28;20128;-59
2023/03/06 09:00:57;;;;;;;14.63;10.02;;;;;;;5.20;59.15;99743.22;4162594;28;20051;-59
2023/03/06 09:03:02;;;;;;;19.92;10.63;;;;;;;5.24;58.87;99740.75;4169912;28;20079;-59
2023/03/06 09:05:06;;;;;;;15.98;10.32;;;;;;;5.09;58.85;99748.09;4163361;28;20116;-59
2023/03/06 09:07:09;;;;;;;16.57;9.67;;;;;;;5.00;58.89;99750.47;4176645;28;20029;-59
2023/03/06 09:09:12;;;;;;;18.20;11.05;;;;;;;5.07;58.63;99748.06;4170244;28;20041;-59
2023/03/06 09:11:16;;;;;;;14.85;9.90;;;;;;;5.19;58.47;99734.59;4169225;28;20124;-59
2023/03/06 09:13:18;;;;;;;17.65;10.35;;;;;;;5.24;58.99;99743.34;4168115;28;20037;-59
2023/03/06 09:15:23;;;;;;;16.15;10.70;;;;;;;5.39;59.17;99739.38;4170606;28;20128;-58
2023/03/06 09:17:25;;;;;;;16.50;11.77;;;;;;;5.46;59.48;99746.44;4170081;28;20049;-59
2023/03/06 09:19:30;;;;;;;17.48;10.30;;;;;;;5.50;59.57;99750.78;4161984;28;20553;-59
2023/03/06 09:21:33;;;;;;;19.52;10.88;;;;;;;5.42;59.10;99750.63;4167651;28;20088;-59
2023/03/06 09:23:38;;;;;;;16.50;11.82;;;;;;;5.46;58.71;99742.97;4144751;28;20064;-60
2023/03/06 09:25:41;;;;;;;17.00;10.70;;;;;;;5.36;58.80;99745.34;4167069;28;20083;-60
2023/03/06 09:27:44;;;;;;;18.05;11.13;;;;;;;5.33;58.75;99744.38;4172124;28;20043;-60
2023/03/06 09:29:47;;;;;;;16.33;11.07;;;;;;;5.30;58.96;99755.50;4186483;28;20088;-60
2023/03/06 09:31:49;;;;;;;21.52;11.38;;;;;;;5.25;58.57;99751.94;4170546;28;20040;-60
2023/03/06 09:33:52;;;;;;;17.35;11.63;;;;;;;5.19;58.26;99755.22;4165033;28;20425;-60
2023/03/06 09:35:57;;;;;;;16.35;10.10;;;;;;;5.16;58.68;99757.72;4170678;28;20052;-60
2023/03/06 09:38:00;;;;;;;16.88;10.88;;;;;;;5.14;58.55;99755.94;4171443;28;20033;-60
2023/03/06 09:40:05;;;;;;;15.25;10.38;;;;;;;5.12;58.67;99757.63;4161571;28;20045;-60
2023/03/06 09:42:13;;;;;;;18.88;12.00;;;;;;;5.25;58.74;99762.22;4165067;28;20036;-60